This is the latest recevied weather packets stored in our database for station/object K7AEL. If no packets are shown the sender has not sent any weather packets the latest 1 day(s).
| Time | Temp. | Humidity | Pressure | Rain* | Wind** | Luminosity | Snow |
|---|---|---|---|---|---|---|---|
| 1778061358 | 13.33° C | 60% | 1015.7 hPa | 0 mm | - | 0 W/m² | - |
| 1778061054 | 13.33° C | 59% | 1015.4 hPa | 0 mm | - | 0 W/m² | - |
| 1778060752 | 13.33° C | 58% | 1015.4 hPa | 0 mm | - | 0 W/m² | - |
| 1778059239 | 13.33° C | 57% | 1015.5 hPa | 0 mm | - | 0 W/m² | - |
| 1778058937 | 13.33° C | 57% | 1015.4 hPa | 0 mm | - | 0 W/m² | - |
| 1778058634 | 13.33° C | 57% | 1015.4 hPa | 0 mm | - | 0 W/m² | - |
| 1778056512 | 13.89° C | 54% | 1015.6 hPa | 0 mm | - | 0 W/m² | - |
| 1778053483 | 15° C | 50% | 1015.6 hPa | 0 mm | - | 0 W/m² | - |
| 1778053180 | 15° C | 51% | 1015.8 hPa | 0 mm | - | 0 W/m² | - |
| 1778052878 | 15° C | 50% | 1015.6 hPa | 0 mm | - | 0 W/m² | - |
| 1778052272 | 15.56° C | 48% | 1015.6 hPa | 0 mm | - | 0 W/m² | - |
| 1778051970 | 15.56° C | 48% | 1015.7 hPa | 0 mm | - | 0 W/m² | - |
| 1778051667 | 15.56° C | 47% | 1015.6 hPa | 0 mm | - | 0 W/m² | - |
| 1778051364 | 15.56° C | 47% | 1015.5 hPa | 0 mm | - | 0 W/m² | - |
| 1778051061 | 15.56° C | 47% | 1015.6 hPa | 0 mm | - | 0 W/m² | - |
| 1778050456 | 16.11° C | 46% | 1015.5 hPa | 0 mm | - | 0 W/m² | - |
| 1778049848 | 16.11° C | 44% | 1015.4 hPa | 0 mm | - | 0 W/m² | - |
| 1778048941 | 16.67° C | 44% | 1015.3 hPa | 0 mm | - | 0 W/m² | - |
| 1778048639 | 16.67° C | 43% | 1015.4 hPa | 0 mm | - | 0 W/m² | - |
| 1778046821 | 17.78° C | 39% | 1015.1 hPa | 0 mm | - | 0 W/m² | - |
| 1778046518 | 18.33° C | 39% | 1015.4 hPa | 0 mm | - | 0 W/m² | - |
| 1778046215 | 18.89° C | 38% | 1015.4 hPa | 0 mm | - | 0 W/m² | - |
| 1778045911 | 18.89° C | 39% | 1015.2 hPa | 0 mm | - | 0 W/m² | - |
| 1778045610 | 18.33° C | 44% | 1015.3 hPa | 0 mm | - | 0 W/m² | - |
| 1778045006 | 18.33° C | 41% | 1015.1 hPa | 0 mm | - | 0 W/m² | - |
* Rain latest hour (hover to see other rain measurements)
** Current wind speed in m/s (hover to see current wind gust speed)